sensor_id;sensor_type;location;lat;lon;timestamp;pressure;altitude;pressure_sealevel;temperature;humidity
10940;BME280;5522;42.696;23.494;2022-12-08T00:00:43;53888.00;;;-139.68;100.00
10940;BME280;5522;42.696;23.494;2022-12-08T00:03:13;53879.94;;;-139.68;100.00
10940;BME280;5522;42.696;23.494;2022-12-08T00:05:43;53944.28;;;-139.68;100.00
10940;BME280;5522;42.696;23.494;2022-12-08T00:08:27;53908.09;;;-139.68;100.00
10940;BME280;5522;42.696;23.494;2022-12-08T00:11:12;53847.78;;;-139.68;100.00
10940;BME280;5522;42.696;23.494;2022-12-08T00:13:39;53932.22;;;-139.68;100.00
10940;BME280;5522;42.696;23.494;2022-12-08T00:16:06;53900.06;;;-139.68;100.00
10940;BME280;5522;42.696;23.494;2022-12-08T00:18:35;53904.06;;;-139.68;100.00
10940;BME280;5522;42.696;23.494;2022-12-08T00:21:02;53908.09;;;-139.68;100.00
10940;BME280;5522;42.696;23.494;2022-12-08T00:23:29;53940.25;;;-139.68;100.00
10940;BME280;5522;42.696;23.494;2022-12-08T00:26:00;53908.09;;;-139.68;100.00
10940;BME280;5522;42.696;23.494;2022-12-08T00:28:27;53922.16;;;-139.68;100.00
10940;BME280;5522;42.696;23.494;2022-12-08T00:30:54;53944.28;;;-139.68;100.00
10940;BME280;5522;42.696;23.494;2022-12-08T00:33:21;53924.16;;;-139.68;100.00
10940;BME280;5522;42.696;23.494;2022-12-08T00:35:49;53926.19;;;-139.68;100.00
10940;BME280;5522;42.696;23.494;2022-12-08T00:38:16;53920.16;;;-139.68;100.00
10940;BME280;5522;42.696;23.494;2022-12-08T00:40:43;53920.16;;;-139.68;100.00
10940;BME280;5522;42.696;23.494;2022-12-08T00:43:10;53936.22;;;-139.68;100.00
10940;BME280;5522;42.696;23.494;2022-12-08T00:45:37;53918.16;;;-139.68;100.00
10940;BME280;5522;42.696;23.494;2022-12-08T00:48:04;53902.06;;;-139.68;100.00
10940;BME280;5522;42.696;23.494;2022-12-08T00:50:32;53956.34;;;-139.68;100.00
10940;BME280;5522;42.696;23.494;2022-12-08T00:53:00;53892.00;;;-139.68;100.00
10940;BME280;5522;42.696;23.494;2022-12-08T00:55:27;53912.13;;;-139.68;100.00
10940;BME280;5522;42.696;23.494;2022-12-08T00:57:53;53952.31;;;-139.68;100.00
10940;BME280;5522;42.696;23.494;2022-12-08T01:05:34;53930.22;;;-139.68;100.00
10940;BME280;5522;42.696;23.494;2022-12-08T01:08:04;53906.06;;;-139.68;100.00
10940;BME280;5522;42.696;23.494;2022-12-08T01:10:30;53942.25;;;-139.68;100.00
10940;BME280;5522;42.696;23.494;2022-12-08T01:12:57;53926.19;;;-139.68;100.00
10940;BME280;5522;42.696;23.494;2022-12-08T01:15:24;53926.19;;;-139.68;100.00
10940;BME280;5522;42.696;23.494;2022-12-08T01:17:51;53934.22;;;-139.68;100.00
10940;BME280;5522;42.696;23.494;2022-12-08T01:22:53;53892.00;;;-139.68;100.00
10940;BME280;5522;42.696;23.494;2022-12-08T01:25:21;53956.34;;;-139.68;100.00
10940;BME280;5522;42.696;23.494;2022-12-08T01:27:48;53900.06;;;-139.68;100.00
10940;BME280;5522;42.696;23.494;2022-12-08T01:30:15;53926.19;;;-139.68;100.00
10940;BME280;5522;42.696;23.494;2022-12-08T01:32:41;53948.31;;;-139.68;100.00
10940;BME280;5522;42.696;23.494;2022-12-08T01:35:08;53885.97;;;-139.68;100.00
10940;BME280;5522;42.696;23.494;2022-12-08T01:37:35;53883.97;;;-139.68;100.00
10940;BME280;5522;42.696;23.494;2022-12-08T01:40:03;53908.09;;;-139.68;100.00
10940;BME280;5522;42.696;23.494;2022-12-08T01:42:31;53922.16;;;-139.68;100.00
10940;BME280;5522;42.696;23.494;2022-12-08T01:45:00;53910.09;;;-139.68;100.00
10940;BME280;5522;42.696;23.494;2022-12-08T01:47:34;53908.09;;;-139.68;100.00
10940;BME280;5522;42.696;23.494;2022-12-08T01:50:02;53885.97;;;-139.68;100.00
10940;BME280;5522;42.696;23.494;2022-12-08T01:52:32;53879.94;;;-139.68;100.00
10940;BME280;5522;42.696;23.494;2022-12-08T01:55:05;53928.19;;;-139.68;100.00
10940;BME280;5522;42.696;23.494;2022-12-08T01:57:36;53875.94;;;-139.68;100.00
10940;BME280;5522;42.696;23.494;2022-12-08T02:00:08;53928.19;;;-139.68;100.00
10940;BME280;5522;42.696;23.494;2022-12-08T02:02:40;53906.06;;;-139.68;100.00
10940;BME280;5522;42.696;23.494;2022-12-08T02:05:08;53906.06;;;-139.68;100.00
10940;BME280;5522;42.696;23.494;2022-12-08T02:07:35;53936.22;;;-139.68;100.00
10940;BME280;5522;42.696;23.494;2022-12-08T02:10:04;53902.06;;;-139.68;100.00
10940;BME280;5522;42.696;23.494;2022-12-08T02:12:31;53958.34;;;-139.68;100.00
10940;BME280;5522;42.696;23.494;2022-12-08T02:14:59;53908.09;;;-139.68;100.00
10940;BME280;5522;42.696;23.494;2022-12-08T02:17:40;53904.06;;;-139.68;100.00
10940;BME280;5522;42.696;23.494;2022-12-08T02:20:29;53924.16;;;-139.68;100.00
10940;BME280;5522;42.696;23.494;2022-12-08T02:23:06;53936.22;;;-139.68;100.00
10940;BME280;5522;42.696;23.494;2022-12-08T02:25:40;53914.13;;;-139.68;100.00
10940;BME280;5522;42.696;23.494;2022-12-08T02:31:24;53902.06;;;-139.68;100.00
10940;BME280;5522;42.696;23.494;2022-12-08T02:34:11;53883.97;;;-139.68;100.00
10940;BME280;5522;42.696;23.494;2022-12-08T02:36:47;53908.09;;;-139.68;100.00
10940;BME280;5522;42.696;23.494;2022-12-08T02:39:26;53904.06;;;-139.68;100.00
10940;BME280;5522;42.696;23.494;2022-12-08T02:42:01;53926.19;;;-139.68;100.00
10940;BME280;5522;42.696;23.494;2022-12-08T02:44:34;53918.16;;;-139.68;100.00
10940;BME280;5522;42.696;23.494;2022-12-08T02:47:08;53946.28;;;-139.68;100.00
10940;BME280;5522;42.696;23.494;2022-12-08T02:49:37;53890.00;;;-139.68;100.00
10940;BME280;5522;42.696;23.494;2022-12-08T02:52:06;53883.97;;;-139.68;100.00
10940;BME280;5522;42.696;23.494;2022-12-08T02:54:34;53863.88;;;-139.68;100.00
10940;BME280;5522;42.696;23.494;2022-12-08T02:57:14;53896.03;;;-139.68;100.00
10940;BME280;5522;42.696;23.494;2022-12-08T02:59:55;53928.19;;;-139.68;100.00
10940;BME280;5522;42.696;23.494;2022-12-08T03:02:41;53871.91;;;-139.68;100.00
10940;BME280;5522;42.696;23.494;2022-12-08T03:05:29;53881.97;;;-139.68;100.00
10940;BME280;5522;42.696;23.494;2022-12-08T03:08:01;53879.94;;;-139.68;100.00
10940;BME280;5522;42.696;23.494;2022-12-08T03:10:34;53888.00;;;-139.68;100.00
10940;BME280;5522;42.696;23.494;2022-12-08T03:13:06;53873.91;;;-139.68;100.00
10940;BME280;5522;42.696;23.494;2022-12-08T03:15:36;53871.91;;;-139.68;100.00
10940;BME280;5522;42.696;23.494;2022-12-08T03:18:04;53871.91;;;-139.68;100.00
10940;BME280;5522;42.696;23.494;2022-12-08T03:20:36;53888.00;;;-139.68;100.00
10940;BME280;5522;42.696;23.494;2022-12-08T03:23:08;53835.72;;;-139.68;100.00
10940;BME280;5522;42.696;23.494;2022-12-08T03:25:42;53896.03;;;-139.68;100.00
10940;BME280;5522;42.696;23.494;2022-12-08T03:28:09;53881.97;;;-139.68;100.00
10940;BME280;5522;42.696;23.494;2022-12-08T03:30:39;53928.19;;;-139.68;100.00
10940;BME280;5522;42.696;23.494;2022-12-08T03:33:13;53892.00;;;-139.68;100.00
10940;BME280;5522;42.696;23.494;2022-12-08T03:35:44;53849.78;;;-139.68;100.00
10940;BME280;5522;42.696;23.494;2022-12-08T03:38:13;53904.06;;;-139.68;100.00
10940;BME280;5522;42.696;23.494;2022-12-08T03:40:41;53827.69;;;-139.68;100.00
10940;BME280;5522;42.696;23.494;2022-12-08T03:43:08;53867.88;;;-139.68;100.00
10940;BME280;5522;42.696;23.494;2022-12-08T03:45:35;53853.81;;;-139.68;100.00
10940;BME280;5522;42.696;23.494;2022-12-08T03:48:02;53841.75;;;-139.68;100.00
10940;BME280;5522;42.696;23.494;2022-12-08T03:50:29;53896.03;;;-139.68;100.00
10940;BME280;5522;42.696;23.494;2022-12-08T03:52:57;53916.13;;;-139.68;100.00
10940;BME280;5522;42.696;23.494;2022-12-08T03:55:24;53908.09;;;-139.68;100.00
10940;BME280;5522;42.696;23.494;2022-12-08T03:57:51;53871.91;;;-139.68;100.00
10940;BME280;5522;42.696;23.494;2022-12-08T04:00:18;53867.88;;;-139.68;100.00
10940;BME280;5522;42.696;23.494;2022-12-08T04:02:44;53859.84;;;-139.68;100.00
10940;BME280;5522;42.696;23.494;2022-12-08T04:05:11;53892.00;;;-139.68;100.00
10940;BME280;5522;42.696;23.494;2022-12-08T04:07:38;53867.88;;;-139.68;100.00
10940;BME280;5522;42.696;23.494;2022-12-08T04:10:08;53875.94;;;-139.68;100.00
10940;BME280;5522;42.696;23.494;2022-12-08T04:12:34;53855.81;;;-139.68;100.00
10940;BME280;5522;42.696;23.494;2022-12-08T04:15:01;53926.19;;;-139.68;100.00
10940;BME280;5522;42.696;23.494;2022-12-08T04:17:28;53892.00;;;-139.68;100.00
10940;BME280;5522;42.696;23.494;2022-12-08T04:19:55;53888.00;;;-139.68;100.00
10940;BME280;5522;42.696;23.494;2022-12-08T04:22:22;53875.94;;;-139.68;100.00
10940;BME280;5522;42.696;23.494;2022-12-08T04:24:48;53914.13;;;-139.68;100.00
10940;BME280;5522;42.696;23.494;2022-12-08T04:27:17;53883.97;;;-139.68;100.00
10940;BME280;5522;42.696;23.494;2022-12-08T04:29:43;53855.81;;;-139.68;100.00
10940;BME280;5522;42.696;23.494;2022-12-08T04:32:10;53896.03;;;-139.68;100.00
10940;BME280;5522;42.696;23.494;2022-12-08T04:34:37;53904.06;;;-139.68;100.00
10940;BME280;5522;42.696;23.494;2022-12-08T04:37:04;53888.00;;;-139.68;100.00
10940;BME280;5522;42.696;23.494;2022-12-08T04:39:30;53898.03;;;-139.68;100.00
10940;BME280;5522;42.696;23.494;2022-12-08T04:41:57;53885.97;;;-139.68;100.00
10940;BME280;5522;42.696;23.494;2022-12-08T04:44:25;53890.00;;;-139.68;100.00
10940;BME280;5522;42.696;23.494;2022-12-08T04:46:52;53879.94;;;-139.68;100.00
10940;BME280;5522;42.696;23.494;2022-12-08T04:49:19;53871.91;;;-139.68;100.00
10940;BME280;5522;42.696;23.494;2022-12-08T04:51:46;53867.88;;;-139.68;100.00
10940;BME280;5522;42.696;23.494;2022-12-08T04:54:13;53873.91;;;-139.68;100.00
10940;BME280;5522;42.696;23.494;2022-12-08T04:56:40;53867.88;;;-139.68;100.00
10940;BME280;5522;42.696;23.494;2022-12-08T04:59:06;53892.00;;;-139.68;100.00
10940;BME280;5522;42.696;23.494;2022-12-08T05:01:35;53883.97;;;-139.68;100.00
10940;BME280;5522;42.696;23.494;2022-12-08T05:04:02;53877.94;;;-139.68;100.00
10940;BME280;5522;42.696;23.494;2022-12-08T05:06:28;53938.25;;;-139.68;100.00
10940;BME280;5522;42.696;23.494;2022-12-08T05:08:55;53898.03;;;-139.68;100.00
10940;BME280;5522;42.696;23.494;2022-12-08T05:11:22;53873.91;;;-139.68;100.00
10940;BME280;5522;42.696;23.494;2022-12-08T05:13:49;53879.94;;;-139.68;100.00
10940;BME280;5522;42.696;23.494;2022-12-08T05:16:16;53892.00;;;-139.68;100.00
10940;BME280;5522;42.696;23.494;2022-12-08T05:18:44;53888.00;;;-139.68;100.00
10940;BME280;5522;42.696;23.494;2022-12-08T05:21:11;53908.09;;;-139.68;100.00
10940;BME280;5522;42.696;23.494;2022-12-08T05:23:38;53914.13;;;-139.68;100.00
10940;BME280;5522;42.696;23.494;2022-12-08T05:26:05;53898.03;;;-139.68;100.00
10940;BME280;5522;42.696;23.494;2022-12-08T05:28:32;53920.16;;;-139.68;100.00
10940;BME280;5522;42.696;23.494;2022-12-08T05:30:59;53900.06;;;-139.68;100.00
10940;BME280;5522;42.696;23.494;2022-12-08T05:33:25;53892.00;;;-139.68;100.00
10940;BME280;5522;42.696;23.494;2022-12-08T05:35:54;53902.06;;;-139.68;100.00
10940;BME280;5522;42.696;23.494;2022-12-08T05:38:20;53924.16;;;-139.68;100.00
10940;BME280;5522;42.696;23.494;2022-12-08T05:40:47;53849.78;;;-139.68;100.00
10940;BME280;5522;42.696;23.494;2022-12-08T05:43:14;53896.03;;;-139.68;100.00
10940;BME280;5522;42.696;23.494;2022-12-08T05:45:41;53888.00;;;-139.68;100.00
10940;BME280;5522;42.696;23.494;2022-12-08T05:48:08;53855.81;;;-139.68;100.00
10940;BME280;5522;42.696;23.494;2022-12-08T05:50:34;53940.25;;;-139.68;100.00
10940;BME280;5522;42.696;23.494;2022-12-08T05:53:03;53930.22;;;-139.68;100.00
10940;BME280;5522;42.696;23.494;2022-12-08T05:55:30;53873.91;;;-139.68;100.00
10940;BME280;5522;42.696;23.494;2022-12-08T05:57:56;53908.09;;;-139.68;100.00
10940;BME280;5522;42.696;23.494;2022-12-08T06:00:23;53890.00;;;-139.68;100.00
10940;BME280;5522;42.696;23.494;2022-12-08T06:02:50;53926.19;;;-139.68;100.00
10940;BME280;5522;42.696;23.494;2022-12-08T06:05:17;53928.19;;;-139.68;100.00
10940;BME280;5522;42.696;23.494;2022-12-08T06:07:44;53885.97;;;-139.68;100.00
10940;BME280;5522;42.696;23.494;2022-12-08T06:10:12;53896.03;;;-139.68;100.00
10940;BME280;5522;42.696;23.494;2022-12-08T06:12:39;53867.88;;;-139.68;100.00
10940;BME280;5522;42.696;23.494;2022-12-08T06:15:06;53912.13;;;-139.68;100.00
10940;BME280;5522;42.696;23.494;2022-12-08T06:17:33;53873.91;;;-139.68;100.00
10940;BME280;5522;42.696;23.494;2022-12-08T06:20:00;53896.03;;;-139.68;100.00
10940;BME280;5522;42.696;23.494;2022-12-08T06:22:28;53908.09;;;-139.68;100.00
10940;BME280;5522;42.696;23.494;2022-12-08T06:24:54;53879.94;;;-139.68;100.00
10940;BME280;5522;42.696;23.494;2022-12-08T06:27:23;53900.06;;;-139.68;100.00
10940;BME280;5522;42.696;23.494;2022-12-08T06:29:49;53863.88;;;-139.68;100.00
10940;BME280;5522;42.696;23.494;2022-12-08T06:32:16;53900.06;;;-139.68;100.00
10940;BME280;5522;42.696;23.494;2022-12-08T06:34:43;53871.91;;;-139.68;100.00
10940;BME280;5522;42.696;23.494;2022-12-08T06:37:10;53918.16;;;-139.68;100.00
10940;BME280;5522;42.696;23.494;2022-12-08T06:39:37;53883.97;;;-139.68;100.00
10940;BME280;5522;42.696;23.494;2022-12-08T06:42:04;53910.09;;;-139.68;100.00
10940;BME280;5522;42.696;23.494;2022-12-08T06:44:50;53890.00;;;-139.68;100.00
10940;BME280;5522;42.696;23.494;2022-12-08T06:47:17;53904.06;;;-139.68;100.00
10940;BME280;5522;42.696;23.494;2022-12-08T06:49:46;53920.16;;;-139.68;100.00
10940;BME280;5522;42.696;23.494;2022-12-08T06:52:12;53871.91;;;-139.68;100.00
10940;BME280;5522;42.696;23.494;2022-12-08T06:54:39;53888.00;;;-139.68;100.00
10940;BME280;5522;42.696;23.494;2022-12-08T06:57:06;53879.94;;;-139.68;100.00
10940;BME280;5522;42.696;23.494;2022-12-08T06:59:33;53902.06;;;-139.68;100.00
10940;BME280;5522;42.696;23.494;2022-12-08T07:02:01;53892.00;;;-139.68;100.00
10940;BME280;5522;42.696;23.494;2022-12-08T07:04:28;53914.13;;;-139.68;100.00
10940;BME280;5522;42.696;23.494;2022-12-08T07:06:55;53910.09;;;-139.68;100.00
10940;BME280;5522;42.696;23.494;2022-12-08T07:09:22;53871.91;;;-139.68;100.00
10940;BME280;5522;42.696;23.494;2022-12-08T07:11:48;53883.97;;;-139.68;100.00
10940;BME280;5522;42.696;23.494;2022-12-08T07:14:15;53900.06;;;-139.68;100.00
10940;BME280;5522;42.696;23.494;2022-12-08T07:16:42;53908.09;;;-139.68;100.00
10940;BME280;5522;42.696;23.494;2022-12-08T07:19:10;53918.16;;;-139.68;100.00
10940;BME280;5522;42.696;23.494;2022-12-08T07:21:37;53875.94;;;-139.68;100.00
10940;BME280;5522;42.696;23.494;2022-12-08T07:24:04;53926.19;;;-139.68;100.00
10940;BME280;5522;42.696;23.494;2022-12-08T07:26:31;53914.13;;;-139.68;100.00
10940;BME280;5522;42.696;23.494;2022-12-08T07:28:59;53934.22;;;-139.68;100.00
10940;BME280;5522;42.696;23.494;2022-12-08T07:31:26;53908.09;;;-139.68;100.00
10940;BME280;5522;42.696;23.494;2022-12-08T07:33:53;53914.13;;;-139.68;100.00
10940;BME280;5522;42.696;23.494;2022-12-08T07:36:23;53908.09;;;-139.68;100.00
10940;BME280;5522;42.696;23.494;2022-12-08T07:38:50;53924.16;;;-139.68;100.00
10940;BME280;5522;42.696;23.494;2022-12-08T07:41:19;53902.06;;;-139.68;100.00
10940;BME280;5522;42.696;23.494;2022-12-08T07:43:47;53932.22;;;-139.68;100.00
10940;BME280;5522;42.696;23.494;2022-12-08T07:46:16;53956.34;;;-139.68;100.00
10940;BME280;5522;42.696;23.494;2022-12-08T07:48:43;53892.00;;;-139.68;100.00
10940;BME280;5522;42.696;23.494;2022-12-08T07:51:11;53888.00;;;-139.68;100.00
10940;BME280;5522;42.696;23.494;2022-12-08T07:53:41;53890.00;;;-139.68;100.00
10940;BME280;5522;42.696;23.494;2022-12-08T07:56:09;53956.34;;;-139.68;100.00
10940;BME280;5522;42.696;23.494;2022-12-08T07:58:36;53932.22;;;-139.68;100.00
10940;BME280;5522;42.696;23.494;2022-12-08T08:01:03;53877.94;;;-139.68;100.00
10940;BME280;5522;42.696;23.494;2022-12-08T08:03:30;53861.84;;;-139.68;100.00
10940;BME280;5522;42.696;23.494;2022-12-08T08:06:01;53900.06;;;-139.68;100.00
10940;BME280;5522;42.696;23.494;2022-12-08T08:08:28;53900.06;;;-139.68;100.00
10940;BME280;5522;42.696;23.494;2022-12-08T08:10:56;53914.13;;;-139.68;100.00
10940;BME280;5522;42.696;23.494;2022-12-08T08:13:23;53916.13;;;-139.68;100.00
10940;BME280;5522;42.696;23.494;2022-12-08T08:15:50;53892.00;;;-139.68;100.00
10940;BME280;5522;42.696;23.494;2022-12-08T08:18:17;53900.06;;;-139.68;100.00
10940;BME280;5522;42.696;23.494;2022-12-08T08:20:43;53914.13;;;-139.68;100.00
10940;BME280;5522;42.696;23.494;2022-12-08T08:23:10;53900.06;;;-139.68;100.00
10940;BME280;5522;42.696;23.494;2022-12-08T08:25:37;53928.19;;;-139.68;100.00
10940;BME280;5522;42.696;23.494;2022-12-08T08:28:05;53914.13;;;-139.68;100.00
10940;BME280;5522;42.696;23.494;2022-12-08T08:30:32;53890.00;;;-139.68;100.00
10940;BME280;5522;42.696;23.494;2022-12-08T08:32:59;53938.25;;;-139.68;100.00
10940;BME280;5522;42.696;23.494;2022-12-08T08:35:26;53900.06;;;-139.68;100.00
10940;BME280;5522;42.696;23.494;2022-12-08T08:37:53;53888.00;;;-139.68;100.00
10940;BME280;5522;42.696;23.494;2022-12-08T08:40:19;53940.25;;;-139.68;100.00
10940;BME280;5522;42.696;23.494;2022-12-08T08:42:46;53926.19;;;-139.68;100.00
10940;BME280;5522;42.696;23.494;2022-12-08T08:45:14;53898.03;;;-139.68;100.00
10940;BME280;5522;42.696;23.494;2022-12-08T08:47:41;53952.31;;;-139.68;100.00
10940;BME280;5522;42.696;23.494;2022-12-08T08:50:08;53920.16;;;-139.68;100.00
10940;BME280;5522;42.696;23.494;2022-12-08T08:52:35;53960.38;;;-139.68;100.00
10940;BME280;5522;42.696;23.494;2022-12-08T08:55:02;53932.22;;;-139.68;100.00
10940;BME280;5522;42.696;23.494;2022-12-08T08:57:29;53924.16;;;-139.68;100.00
10940;BME280;5522;42.696;23.494;2022-12-08T08:59:56;53936.22;;;-139.68;100.00
10940;BME280;5522;42.696;23.494;2022-12-08T09:02:24;53875.94;;;-139.68;100.00
10940;BME280;5522;42.696;23.494;2022-12-08T09:04:51;53918.16;;;-139.68;100.00
10940;BME280;5522;42.696;23.494;2022-12-08T09:07:18;53924.16;;;-139.68;100.00
10940;BME280;5522;42.696;23.494;2022-12-08T09:09:44;53964.38;;;-139.68;100.00
10940;BME280;5522;42.696;23.494;2022-12-08T09:12:11;53932.22;;;-139.68;97.23
10940;BME280;5522;42.696;23.494;2022-12-08T09:14:38;53972.41;;;-139.68;84.96
10940;BME280;5522;42.696;23.494;2022-12-08T09:17:06;53990.50;;;-139.68;68.39
10940;BME280;5522;42.696;23.494;2022-12-08T09:19:34;53988.50;;;-139.68;61.43
10940;BME280;5522;42.696;23.494;2022-12-08T09:22:01;54008.63;;;-139.68;52.81
10940;BME280;5522;42.696;23.494;2022-12-08T09:24:28;53986.50;;;-139.68;54.67
10940;BME280;5522;42.696;23.494;2022-12-08T09:26:55;53988.50;;;-139.68;46.08
10940;BME280;5522;42.696;23.494;2022-12-08T09:29:21;54024.69;;;-139.68;45.13
10940;BME280;5522;42.696;23.494;2022-12-08T09:31:48;53994.53;;;-139.68;45.96
10940;BME280;5522;42.696;23.494;2022-12-08T09:34:15;54016.66;;;-139.68;44.96
10940;BME280;5522;42.696;23.494;2022-12-08T09:36:43;54032.72;;;-139.68;44.08
10940;BME280;5522;42.696;23.494;2022-12-08T09:39:10;54036.75;;;-139.68;39.36
10940;BME280;5522;42.696;23.494;2022-12-08T09:41:42;54056.84;;;-139.68;42.08
10940;BME280;5522;42.696;23.494;2022-12-08T09:44:29;54034.75;;;-139.68;40.44
10940;BME280;5522;42.696;23.494;2022-12-08T09:47:05;54006.59;;;-139.68;38.99
10940;BME280;5522;42.696;23.494;2022-12-08T09:49:41;54016.66;;;-139.68;39.86
10940;BME280;5522;42.696;23.494;2022-12-08T09:52:18;54020.66;;;-139.68;39.13
10940;BME280;5522;42.696;23.494;2022-12-08T09:54:46;54056.84;;;-139.68;42.58
10940;BME280;5522;42.696;23.494;2022-12-08T09:57:18;54032.72;;;-139.68;44.79
10940;BME280;5522;42.696;23.494;2022-12-08T09:59:48;54050.84;;;-139.68;46.84
10940;BME280;5522;42.696;23.494;2022-12-08T10:02:20;54046.81;;;-139.68;54.27
10940;BME280;5522;42.696;23.494;2022-12-08T10:04:48;54036.75;;;-139.68;56.02
10940;BME280;5522;42.696;23.494;2022-12-08T10:07:21;54032.72;;;-139.68;56.55
10940;BME280;5522;42.696;23.494;2022-12-08T10:09:57;54016.66;;;-139.68;56.69
10940;BME280;5522;42.696;23.494;2022-12-08T10:12:31;54008.63;;;-139.68;57.35
10940;BME280;5522;42.696;23.494;2022-12-08T10:15:09;54048.81;;;-139.68;54.46
10940;BME280;5522;42.696;23.494;2022-12-08T10:17:45;54032.72;;;-139.68;58.83
10940;BME280;5522;42.696;23.494;2022-12-08T10:20:15;54028.72;;;-139.68;55.84
10940;BME280;5522;42.696;23.494;2022-12-08T10:22:45;53996.53;;;-139.68;50.54
10940;BME280;5522;42.696;23.494;2022-12-08T10:25:18;54018.66;;;-139.68;49.80
10940;BME280;5522;42.696;23.494;2022-12-08T10:27:48;54016.66;;;-139.68;49.44
10940;BME280;5522;42.696;23.494;2022-12-08T10:30:18;54024.69;;;-139.68;51.11
10940;BME280;5522;42.696;23.494;2022-12-08T10:32:48;54038.75;;;-139.68;53.05
10940;BME280;5522;42.696;23.494;2022-12-08T10:35:16;53984.47;;;-139.68;54.40
10940;BME280;5522;42.696;23.494;2022-12-08T10:37:54;54038.75;;;-139.68;53.68
10940;BME280;5522;42.696;23.494;2022-12-08T10:40:23;53982.47;;;-139.68;53.14
10940;BME280;5522;42.696;23.494;2022-12-08T10:42:55;54054.84;;;-139.68;56.19
10940;BME280;5522;42.696;23.494;2022-12-08T10:45:25;54004.59;;;-139.68;58.91
10940;BME280;5522;42.696;23.494;2022-12-08T10:47:59;54016.66;;;-139.68;61.54
10940;BME280;5522;42.696;23.494;2022-12-08T10:50:30;54006.59;;;-139.68;67.44
10940;BME280;5522;42.696;23.494;2022-12-08T10:53:01;53992.53;;;-139.68;68.56
10940;BME280;5522;42.696;23.494;2022-12-08T10:55:39;54048.81;;;-139.68;65.01
10940;BME280;5522;42.696;23.494;2022-12-08T10:58:25;54020.66;;;-139.68;65.34
10940;BME280;5522;42.696;23.494;2022-12-08T11:00:54;53986.50;;;-139.68;56.20
10940;BME280;5522;42.696;23.494;2022-12-08T11:03:26;54020.66;;;-139.68;51.52
10940;BME280;5522;42.696;23.494;2022-12-08T11:05:58;54022.69;;;-139.68;47.11
10940;BME280;5522;42.696;23.494;2022-12-08T11:08:28;54036.75;;;-139.68;47.24
10940;BME280;5522;42.696;23.494;2022-12-08T11:10:55;54028.72;;;-139.68;50.83
10940;BME280;5522;42.696;23.494;2022-12-08T11:13:23;54020.66;;;-139.68;58.51
10940;BME280;5522;42.696;23.494;2022-12-08T11:15:53;53986.50;;;-139.68;66.87
10940;BME280;5522;42.696;23.494;2022-12-08T11:18:26;53996.53;;;-139.68;74.43
10940;BME280;5522;42.696;23.494;2022-12-08T11:21:06;53978.47;;;-139.68;79.67
10940;BME280;5522;42.696;23.494;2022-12-08T11:23:36;54018.66;;;-139.68;80.92
10940;BME280;5522;42.696;23.494;2022-12-08T11:26:06;53978.47;;;-139.68;79.80
10940;BME280;5522;42.696;23.494;2022-12-08T11:28:38;53992.53;;;-139.68;81.76
10940;BME280;5522;42.696;23.494;2022-12-08T11:31:19;54044.78;;;-139.68;84.87
10940;BME280;5522;42.696;23.494;2022-12-08T11:33:48;53982.47;;;-139.68;85.79
10940;BME280;5522;42.696;23.494;2022-12-08T11:36:19;54008.63;;;-139.68;87.83
10940;BME280;5522;42.696;23.494;2022-12-08T11:38:50;54042.78;;;-139.68;90.45
10940;BME280;5522;42.696;23.494;2022-12-08T11:41:24;54014.63;;;-139.68;91.64
10940;BME280;5522;42.696;23.494;2022-12-08T11:43:54;53988.50;;;-139.68;92.73
10940;BME280;5522;42.696;23.494;2022-12-08T11:46:29;54016.66;;;-139.68;95.78
10940;BME280;5522;42.696;23.494;2022-12-08T11:49:00;54028.72;;;-139.68;97.64
10940;BME280;5522;42.696;23.494;2022-12-08T11:51:31;54016.66;;;-139.68;97.58
10940;BME280;5522;42.696;23.494;2022-12-08T11:54:09;53988.50;;;-139.68;100.00
10940;BME280;5522;42.696;23.494;2022-12-08T11:56:41;54002.56;;;-139.68;100.00
10940;BME280;5522;42.696;23.494;2022-12-08T11:59:17;54024.69;;;-139.68;99.17
10940;BME280;5522;42.696;23.494;2022-12-08T12:01:46;54002.56;;;-139.68;100.00
10940;BME280;5522;42.696;23.494;2022-12-08T12:04:18;54010.63;;;-139.68;100.00
10940;BME280;5522;42.696;23.494;2022-12-08T12:10:12;53984.47;;;-139.68;100.00
10940;BME280;5522;42.696;23.494;2022-12-08T12:12:54;54000.56;;;-139.68;98.06
10940;BME280;5522;42.696;23.494;2022-12-08T12:15:38;53992.53;;;-139.68;98.55
10940;BME280;5522;42.696;23.494;2022-12-08T12:18:15;54020.66;;;-139.68;100.00
10940;BME280;5522;42.696;23.494;2022-12-08T12:20:50;53992.53;;;-139.68;99.02
10940;BME280;5522;42.696;23.494;2022-12-08T12:23:21;53998.56;;;-139.68;100.00
10940;BME280;5522;42.696;23.494;2022-12-08T12:25:54;53966.38;;;-139.68;100.00
10940;BME280;5522;42.696;23.494;2022-12-08T12:28:23;54024.69;;;-139.68;100.00
10940;BME280;5522;42.696;23.494;2022-12-08T12:30:54;53980.47;;;-139.68;100.00
10940;BME280;5522;42.696;23.494;2022-12-08T12:33:24;53998.56;;;-139.68;100.00
10940;BME280;5522;42.696;23.494;2022-12-08T12:35:54;54036.75;;;-139.68;100.00
10940;BME280;5522;42.696;23.494;2022-12-08T12:38:24;54008.63;;;-139.68;100.00
10940;BME280;5522;42.696;23.494;2022-12-08T12:41:11;53984.47;;;-139.68;97.90
10940;BME280;5522;42.696;23.494;2022-12-08T12:43:39;54016.66;;;-139.68;98.18
10940;BME280;5522;42.696;23.494;2022-12-08T12:46:53;54016.66;;;-139.68;98.19
10940;BME280;5522;42.696;23.494;2022-12-08T12:50:03;53988.50;;;-139.68;96.28
10940;BME280;5522;42.696;23.494;2022-12-08T12:52:45;54020.66;;;-139.68;96.52
10940;BME280;5522;42.696;23.494;2022-12-08T12:55:22;54044.78;;;-139.68;97.26
10940;BME280;5522;42.696;23.494;2022-12-08T12:57:52;54004.59;;;-139.68;97.71
10940;BME280;5522;42.696;23.494;2022-12-08T13:00:21;54012.63;;;-139.68;98.85